Time;durP1;ratioP1;P1;durP2;ratioP2;P2;SDS_P1;SDS_P2;PMS_P1;PMS_P2;Temp;Humidity;BMP_temperature;BMP_pressure;BME280_temperature;BME280_humidity;BME280_pressure;Samples;Min_cycle;Max_cycle;Signal;HPM_P1;HPM_P2
2023/08/20 00:00:48;26501.00;0.09;46.53;0.00;0.00;0.62;;;;;27.00;1.00;;;;;;2269147;61;1590;-88
2023/08/20 00:03:15;99672.00;0.33;173.01;0.00;0.00;0.62;;;;;27.00;1.00;;;;;;2269142;61;2428;-87
2023/08/20 00:05:42;364673.00;1.22;629.08;0.00;0.00;0.62;;;;;26.90;1.00;;;;;;2269025;61;1581;-88
2023/08/20 00:08:10;167991.00;0.56;290.81;0.00;0.00;0.62;;;;;26.50;1.10;;;;;;2269129;61;2012;-86
2023/08/20 00:10:37;627375.00;2.09;1081.51;32620.00;0.11;57.12;;;;;26.20;1.70;;;;;;2269183;61;1024;-88
2023/08/20 00:13:05;311243.00;1.04;537.25;26231.00;0.09;46.06;;;;;26.10;2.20;;;;;;2268948;61;1616;-88
2023/08/20 00:15:32;135933.00;0.45;235.56;0.00;0.00;0.62;;;;;26.10;2.50;;;;;;2268975;61;2279;-87
2023/08/20 00:17:59;265042.00;0.88;457.82;0.00;0.00;0.62;;;;;26.10;3.30;;;;;;2269155;61;957;-88
2023/08/20 00:20:28;147826.00;0.49;256.06;0.00;0.00;0.62;;;;;26.30;2.40;;;;;;2269168;61;1067;-88
2023/08/20 00:22:56;317527.00;1.06;548.05;0.00;0.00;0.62;;;;;26.50;1.50;;;;;;2269041;61;1596;-90
2023/08/20 00:25:25;1310974.00;4.37;2292.20;118912.00;0.40;206.21;;;;;26.50;1.40;;;;;;2269134;61;1337;-88
2023/08/20 00:27:52;1467031.00;4.89;2581.24;145359.00;0.48;251.81;;;;;26.60;1.00;;;;;;2269085;61;2013;-86
2023/08/20 00:30:19;1454917.00;4.85;2558.57;65284.00;0.22;113.61;;;;;26.50;2.00;;;;;;2268729;61;1842;-87
2023/08/20 00:32:46;1938729.00;6.46;3499.26;122283.00;0.41;212.02;;;;;26.40;1.90;;;;;;2269079;61;1558;-88
2023/08/20 00:35:13;1449927.00;4.83;2549.25;159180.00;0.53;275.63;;;;;26.60;1.40;;;;;;2269030;61;1654;-87
2023/08/20 00:37:40;966166.00;3.22;1672.64;198792.00;0.66;343.84;;;;;26.50;1.20;;;;;;2269194;61;968;-89
2023/08/20 00:40:08;811016.00;2.70;1400.34;150437.00;0.50;260.56;;;;;26.50;1.10;;;;;;2266997;61;1568;-88
2023/08/20 00:42:37;838437.00;2.79;1448.24;141169.00;0.47;244.59;;;;;26.50;1.00;;;;;;2271364;61;1343;-89
2023/08/20 00:45:05;1458605.00;4.86;2565.47;125510.00;0.42;217.59;;;;;26.40;1.20;;;;;;2272781;61;1907;-88
2023/08/20 00:47:32;392075.00;1.31;676.18;65875.00;0.22;114.63;;;;;26.40;1.20;;;;;;2272388;61;1912;-88
2023/08/20 00:49:59;523627.00;1.75;902.51;71412.00;0.24;124.20;;;;;26.50;1.20;;;;;;2268884;61;1037;-90
2023/08/20 00:52:26;1192455.00;3.97;2076.58;107977.00;0.36;187.34;;;;;26.50;1.00;;;;;;2268746;61;1997;-88
2023/08/20 00:54:54;361239.00;1.20;623.18;36676.00;0.12;64.14;;;;;26.20;1.90;;;;;;2268764;61;1757;-90
2023/08/20 00:57:23;302752.00;1.01;522.65;5326.00;0.02;9.85;;;;;26.30;1.60;;;;;;2268908;61;2118;-89
2023/08/20 00:59:52;173189.00;0.58;299.76;8435.00;0.03;15.24;;;;;26.30;1.60;;;;;;2268884;61;1467;-87
2023/08/20 01:02:19;102977.00;0.34;178.71;0.00;0.00;0.62;;;;;26.10;2.20;;;;;;2268663;61;1037;-87
2023/08/20 01:04:49;155354.00;0.52;269.03;0.00;0.00;0.62;;;;;26.10;2.00;;;;;;2268735;61;1381;-88
2023/08/20 01:07:25;358144.00;1.19;617.86;0.00;0.00;0.62;;;;;26.10;2.30;;;;;;2266713;61;1488;-88
2023/08/20 01:10:05;83480.00;0.28;145.05;0.00;0.00;0.62;;;;;25.80;3.20;;;;;;2264991;61;1116;-88
2023/08/20 01:12:35;156816.00;0.52;271.55;30891.00;0.10;54.13;;;;;25.60;4.10;;;;;;2265009;61;1042;-87
2023/08/20 01:15:03;175934.00;0.59;304.49;78847.00;0.26;137.05;;;;;25.50;4.30;;;;;;2264818;61;2318;-87
2023/08/20 01:17:30;172894.00;0.58;299.25;55304.00;0.18;96.36;;;;;25.60;4.10;;;;;;2264823;61;1119;-90
2023/08/20 01:19:58;187454.00;0.62;324.32;0.00;0.00;0.62;;;;;25.70;3.50;;;;;;2264925;61;1031;-87
2023/08/20 01:22:56;42439.00;0.14;74.11;0.00;0.00;0.62;;;;;25.90;3.10;;;;;;2264963;61;1064;-87
2023/08/20 01:25:40;162055.00;0.54;280.58;0.00;0.00;0.62;;;;;25.90;2.70;;;;;;2264871;61;1464;-88
2023/08/20 01:28:20;54421.00;0.18;94.83;0.00;0.00;0.62;;;;;26.10;2.30;;;;;;2264864;61;1982;-87
2023/08/20 01:30:48;139242.00;0.46;241.26;0.00;0.00;0.62;;;;;25.90;3.00;;;;;;2264913;61;1053;-86
2023/08/20 01:33:15;74176.00;0.25;128.98;0.00;0.00;0.62;;;;;25.80;3.10;;;;;;2264892;61;1296;-88
2023/08/20 01:35:42;60579.00;0.20;105.48;0.00;0.00;0.62;;;;;25.80;3.10;;;;;;2264886;61;1131;-86
2023/08/20 01:38:09;163188.00;0.54;282.53;0.00;0.00;0.62;;;;;25.60;3.60;;;;;;2264928;61;1051;-89
2023/08/20 01:40:36;140520.00;0.47;243.47;8227.00;0.03;14.88;;;;;25.70;3.10;;;;;;2264889;61;1074;-88
2023/08/20 01:43:03;1123136.00;3.74;1951.85;93299.00;0.31;162.00;;;;;25.70;2.60;;;;;;2264862;61;1614;-88
2023/08/20 01:45:31;1034739.00;3.45;1794.10;71556.00;0.24;124.45;;;;;25.90;1.40;;;;;;2264859;61;1381;-88
2023/08/20 01:47:58;1232649.00;4.11;2149.36;80058.00;0.27;139.14;;;;;26.00;1.80;;;;;;2264849;61;2002;-90
2023/08/20 01:50:25;1552180.00;5.17;2741.70;149479.00;0.50;258.91;;;;;25.90;2.20;;;;;;2264826;61;1678;-88
2023/08/20 01:52:52;1257409.00;4.19;2194.37;121212.00;0.40;210.17;;;;;25.60;2.90;;;;;;2264881;61;942;-87
2023/08/20 01:55:19;296185.00;0.99;511.36;71889.00;0.24;125.02;;;;;25.50;4.00;;;;;;2264839;61;1297;-89
2023/08/20 01:57:45;280047.00;0.93;483.62;63182.00;0.21;109.98;;;;;25.70;2.50;;;;;;2264820;61;2140;-88
2023/08/20 02:00:13;40394.00;0.13;70.57;0.00;0.00;0.62;;;;;26.00;1.00;;;;;;2264774;61;1101;-88
2023/08/20 02:02:42;205437.00;0.68;355.28;0.00;0.00;0.62;;;;;25.90;1.90;;;;;;2264713;61;932;-86
2023/08/20 02:05:10;258575.00;0.86;446.70;0.00;0.00;0.62;;;;;25.80;1.80;;;;;;2265271;61;2056;-87
2023/08/20 02:07:37;140088.00;0.47;242.72;0.00;0.00;0.62;;;;;25.80;1.90;;;;;;2268845;61;1315;-88
2023/08/20 02:10:04;47463.00;0.16;82.80;0.00;0.00;0.62;;;;;25.80;2.40;;;;;;2268774;61;1977;-87
2023/08/20 02:12:31;318286.00;1.06;549.35;0.00;0.00;0.62;;;;;25.80;2.50;;;;;;2268810;61;1070;-87
2023/08/20 02:14:59;0.00;0.00;0.62;0.00;0.00;0.62;;;;;25.90;2.50;;;;;;2268688;61;1617;-88
2023/08/20 02:17:25;318576.00;1.06;549.85;0.00;0.00;0.62;;;;;25.90;1.90;;;;;;2268495;61;2056;-88
2023/08/20 02:19:54;41408.00;0.14;72.32;0.00;0.00;0.62;;;;;25.90;1.10;;;;;;2268832;61;966;-86
2023/08/20 02:22:20;23693.00;0.08;41.66;0.00;0.00;0.62;;;;;25.90;1.50;;;;;;2268770;61;1154;-86
2023/08/20 02:24:47;312556.00;1.04;539.50;47512.00;0.16;82.88;;;;;25.70;2.30;;;;;;2268824;61;1285;-87
2023/08/20 02:27:14;92130.00;0.31;159.99;0.00;0.00;0.62;;;;;25.70;2.60;;;;;;2268814;61;1020;-89
2023/08/20 02:29:41;679612.00;2.27;1171.90;150686.00;0.50;260.99;;;;;25.70;2.40;;;;;;2268670;61;1910;-88
2023/08/20 02:32:07;1500018.00;5.00;2643.15;105390.00;0.35;182.87;;;;;25.80;2.30;;;;;;2268681;61;1668;-89
2023/08/20 02:34:34;1399896.00;4.67;2456.13;100137.00;0.33;173.81;;;;;25.60;2.80;;;;;;2268687;61;1917;-88
2023/08/20 02:37:02;1349084.00;4.50;2362.22;105509.00;0.35;183.08;;;;;25.60;3.10;;;;;;2268661;61;1329;-87
2023/08/20 02:39:29;983335.00;3.28;1702.98;113080.00;0.38;196.14;;;;;25.60;2.80;;;;;;2268757;61;914;-88
2023/08/20 02:41:56;117114736.00;390.38;65066940.00;59873.00;0.20;104.26;;;;;25.50;3.00;;;;;;2268740;61;1072;-86
2023/08/20 02:44:22;506798.00;1.69;873.53;88525.00;0.30;153.76;;;;;25.60;2.90;;;;;;2268666;61;1311;-87
2023/08/20 02:46:49;294966.00;0.98;509.27;64934.00;0.22;113.01;;;;;25.70;2.10;;;;;;2268727;61;1647;-87
2023/08/20 02:49:16;484674.00;1.62;835.44;125910.00;0.42;218.28;;;;;25.70;2.70;;;;;;2268653;61;1912;-88
2023/08/20 02:51:44;211030.00;0.70;364.91;73168.00;0.24;127.23;;;;;25.60;2.90;;;;;;2268777;61;1010;-88
2023/08/20 02:54:12;221680.00;0.74;383.23;72400.00;0.24;125.91;;;;;25.40;3.60;;;;;;2268654;61;1398;-88
2023/08/20 02:56:39;398074.00;1.33;686.49;79846.00;0.27;138.77;;;;;25.30;4.20;;;;;;2268587;61;1624;-89
2023/08/20 02:59:06;192046.00;0.64;332.23;9545.00;0.03;17.16;;;;;25.20;4.30;;;;;;2268746;61;991;-88
2023/08/20 03:01:33;566581.00;1.89;976.55;154741.00;0.52;267.98;;;;;25.10;4.70;;;;;;2268746;61;1053;-88
2023/08/20 03:04:00;303034.00;1.01;523.14;0.00;0.00;0.62;;;;;25.10;4.70;;;;;;2269029;61;1293;-88
2023/08/20 03:06:26;110217.00;0.37;191.20;0.00;0.00;0.62;;;;;25.20;4.30;;;;;;2268994;61;1116;-87
2023/08/20 03:08:53;152369.00;0.51;263.89;0.00;0.00;0.62;;;;;25.50;3.50;;;;;;2268965;61;2002;-87
2023/08/20 03:11:21;0.00;0.00;0.62;0.00;0.00;0.62;;;;;25.40;4.40;;;;;;2268988;61;1060;-87
2023/08/20 03:13:48;405329.00;1.35;698.97;0.00;0.00;0.62;;;;;25.10;4.10;;;;;;2268378;61;1238;-87
2023/08/20 03:16:15;490872.00;1.64;846.11;47818.00;0.16;83.41;;;;;25.00;5.10;;;;;;2271727;61;2111;-87
2023/08/20 03:18:42;1603765.00;5.35;2839.94;105260.00;0.35;182.65;;;;;25.00;5.10;;;;;;2269126;61;1916;-87
2023/08/20 03:21:09;145238.00;0.48;251.60;0.00;0.00;0.62;;;;;25.00;5.40;;;;;;2268895;61;1080;-87
2023/08/20 03:23:36;1109849.00;3.70;1928.05;50433.00;0.17;87.94;;;;;24.90;5.40;;;;;;2268787;61;1279;-86
2023/08/20 03:26:03;1077398.00;3.59;1870.05;70551.00;0.24;122.71;;;;;24.60;6.80;;;;;;2268937;61;1130;-88
2023/08/20 03:28:32;1219195.00;4.06;2124.96;146455.00;0.49;253.70;;;;;24.50;6.80;;;;;;2268923;61;2009;-88
2023/08/20 03:31:01;1227148.00;4.09;2139.38;63959.00;0.21;111.32;;;;;24.10;8.00;;;;;;2268887;61;1123;-88
2023/08/20 03:33:28;1228811.00;4.10;2142.40;74366.00;0.25;129.30;;;;;23.70;8.90;;;;;;2268842;61;1764;-87
2023/08/20 03:35:55;1561673.00;5.21;2759.71;94178.00;0.31;163.52;;;;;23.50;10.10;;;;;;2268875;61;1607;-89
2023/08/20 03:38:22;918731.00;3.06;1589.04;93252.00;0.31;161.92;;;;;23.40;11.50;;;;;;2268848;61;1715;-87
2023/08/20 03:40:49;1029797.00;3.43;1785.32;121210.00;0.40;210.17;;;;;23.60;10.90;;;;;;2268854;61;1587;-87
2023/08/20 03:43:15;117505784.00;391.69;65721480.00;134003.00;0.45;232.23;;;;;23.80;10.10;;;;;;2268809;61;1305;-88
2023/08/20 03:45:44;117201800.00;390.67;65212292.00;71110.00;0.24;123.68;;;;;24.00;9.70;;;;;;2268798;61;1075;-88
2023/08/20 03:48:11;334416.00;1.11;577.08;76816.00;0.26;133.54;;;;;24.10;9.00;;;;;;2268568;61;1466;-89
2023/08/20 03:50:38;669192.00;2.23;1153.85;74634.00;0.25;129.77;;;;;24.10;8.40;;;;;;2268709;61;1928;-88
2023/08/20 03:53:05;267631.00;0.89;462.27;71864.00;0.24;124.98;;;;;24.50;6.90;;;;;;2268885;61;1093;-88
2023/08/20 03:55:31;651864.00;2.17;1123.86;75926.00;0.25;132.00;;;;;24.80;5.60;;;;;;2268170;61;1321;-88
2023/08/20 03:57:58;1654014.00;5.51;2936.42;292660.00;0.98;505.30;;;;;24.90;4.80;;;;;;2271800;61;1888;-89
2023/08/20 04:00:25;248612.00;0.83;429.56;101603.00;0.34;176.34;;;;;25.00;4.80;;;;;;2272788;61;1584;-89
2023/08/20 04:02:53;174861.00;0.58;302.64;0.00;0.00;0.62;;;;;25.00;4.60;;;;;;2272471;61;1072;-88
2023/08/20 04:05:20;165764.00;0.55;286.97;0.00;0.00;0.62;;;;;25.00;4.50;;;;;;2272156;61;2107;-88
2023/08/20 04:07:47;934366.00;3.11;1616.56;28201.00;0.09;49.47;;;;;24.60;5.40;;;;;;2268298;61;1142;-85
2023/08/20 04:10:14;141702.00;0.47;245.50;0.00;0.00;0.62;;;;;24.80;5.50;;;;;;2268248;61;2321;-88
2023/08/20 04:12:41;267915.00;0.89;462.76;0.00;0.00;0.62;;;;;24.50;5.90;;;;;;2268012;61;1028;-86
2023/08/20 04:15:08;454382.00;1.51;783.32;0.00;0.00;0.62;;;;;24.50;6.50;;;;;;2264386;61;1905;-86
2023/08/20 04:17:35;62749.00;0.21;109.23;0.00;0.00;0.62;;;;;24.70;5.90;;;;;;2268775;61;1587;-86
2023/08/20 04:20:07;78762.00;0.26;136.90;0.00;0.00;0.62;;;;;24.90;5.20;;;;;;2268778;61;1122;-86
2023/08/20 04:22:34;100764.00;0.34;174.89;28784.00;0.10;50.48;;;;;24.90;5.50;;;;;;2268468;61;1735;-86
2023/08/20 04:25:01;1680433.00;5.60;2987.47;127252.00;0.42;220.59;;;;;24.70;5.60;;;;;;2268578;61;1359;-87
2023/08/20 04:27:27;1241778.00;4.14;2165.94;76817.00;0.26;133.54;;;;;24.70;5.80;;;;;;2273032;61;1974;-86
2023/08/20 04:29:54;606214.00;2.02;1044.95;0.00;0.00;0.62;;;;;24.70;5.80;;;;;;2273025;61;2008;-87
2023/08/20 04:32:21;361468.00;1.20;623.57;0.00;0.00;0.62;;;;;24.80;5.40;;;;;;2272862;61;1660;-87
2023/08/20 04:34:49;1063749.00;3.55;1845.71;251360.00;0.84;434.29;;;;;24.70;5.00;;;;;;2270614;61;1808;-87
2023/08/20 04:37:17;2550918.00;8.50;4823.73;314240.00;1.05;542.40;;;;;24.90;4.70;;;;;;2265554;61;1297;-88
2023/08/20 04:39:44;876113.00;2.92;1514.20;21043.00;0.07;37.08;;;;;25.20;3.90;;;;;;2265429;61;1576;-89
2023/08/20 04:42:11;1248880.00;4.16;2178.85;116223.00;0.39;201.57;;;;;25.40;2.40;;;;;;2265201;61;1128;-88
2023/08/20 04:44:38;1326590.00;4.42;2320.85;154193.00;0.51;267.03;;;;;25.50;2.60;;;;;;2265172;61;1393;-86
2023/08/20 04:47:05;359989.00;1.20;621.03;69063.00;0.23;120.14;;;;;25.40;2.80;;;;;;2265448;61;987;-88
2023/08/20 04:49:32;230984.00;0.77;399.24;69211.00;0.23;120.40;;;;;25.30;3.10;;;;;;2265212;61;1923;-88
2023/08/20 04:51:59;433971.00;1.45;748.21;65964.00;0.22;114.79;;;;;25.30;3.50;;;;;;2265432;61;1086;-88
2023/08/20 04:54:27;206310.00;0.69;356.78;74990.00;0.25;130.38;;;;;25.30;3.40;;;;;;2265406;61;1423;-89
2023/08/20 04:56:54;364786.00;1.22;629.27;73509.00;0.25;127.82;;;;;25.40;2.70;;;;;;2265319;61;1095;-87
2023/08/20 04:59:21;297919.00;0.99;514.34;70543.00;0.24;122.70;;;;;25.40;2.70;;;;;;2265371;61;1113;-88
2023/08/20 05:01:48;328476.00;1.09;566.87;77357.00;0.26;134.47;;;;;25.20;3.60;;;;;;2265297;61;1095;-86
2023/08/20 05:04:14;213703.00;0.71;369.51;0.00;0.00;0.62;;;;;25.10;4.10;;;;;;2265264;61;1399;-87
2023/08/20 05:06:41;497675.00;1.66;857.82;94744.00;0.32;164.50;;;;;25.00;4.60;;;;;;2265344;61;1084;-87
2023/08/20 05:09:08;24520.00;0.08;43.10;0.00;0.00;0.62;;;;;25.10;4.10;;;;;;2265197;61;1915;-87
2023/08/20 05:11:37;117587.00;0.39;203.92;0.00;0.00;0.62;;;;;25.30;4.20;;;;;;2265347;61;1002;-88
2023/08/20 05:14:04;199082.00;0.66;344.34;26609.00;0.09;46.71;;;;;25.30;4.20;;;;;;2265172;61;1483;-86
2023/08/20 05:16:31;57810.00;0.19;100.69;0.00;0.00;0.62;;;;;25.30;4.30;;;;;;2265290;61;1123;-88
2023/08/20 05:18:58;148269.00;0.49;256.82;25340.00;0.08;44.52;;;;;25.20;5.30;;;;;;2265274;61;1659;-86
2023/08/20 05:21:25;240385.00;0.80;415.41;73681.00;0.25;128.12;;;;;25.30;4.80;;;;;;2265315;61;1095;-86
2023/08/20 05:23:52;265893.00;0.89;459.28;69587.00;0.23;121.05;;;;;25.30;5.00;;;;;;2265255;61;1392;-87
2023/08/20 05:26:19;672022.00;2.24;1158.75;20391.00;0.07;35.95;;;;;25.60;4.50;;;;;;2265317;61;1133;-88
2023/08/20 05:28:47;787691.00;2.63;1359.67;40395.00;0.13;70.57;;;;;25.70;4.40;;;;;;2265271;61;1923;-86
2023/08/20 05:31:14;1177003.00;3.92;2048.70;117033.00;0.39;202.96;;;;;25.90;4.00;;;;;;2265315;61;1139;-87
2023/08/20 05:33:41;897403.00;2.99;1551.56;134892.00;0.45;233.76;;;;;25.90;4.50;;;;;;2265074;61;1473;-87
2023/08/20 05:36:08;303051.00;1.01;523.16;67457.00;0.22;117.37;;;;;26.00;5.00;;;;;;2265175;61;1065;-88
2023/08/20 05:38:35;392431.00;1.31;676.79;68547.00;0.23;119.25;;;;;26.70;3.50;;;;;;2265010;61;1115;-88
2023/08/20 05:41:02;386086.00;1.29;665.89;63955.00;0.21;111.31;;;;;27.60;3.40;;;;;;2265203;61;1638;-88
2023/08/20 05:43:28;218018.00;0.73;376.93;40421.00;0.13;70.62;;;;;28.60;1.00;;;;;;2265163;61;1694;-87
2023/08/20 05:45:57;184822.00;0.62;319.79;44314.00;0.15;77.35;;;;;29.20;1.00;;;;;;2265126;61;1716;-88
2023/08/20 05:48:24;569270.00;1.90;981.19;51279.00;0.17;89.40;;;;;29.90;1.00;;;;;;2265241;61;1123;-88
2023/08/20 05:50:51;123208.00;0.41;213.62;0.00;0.00;0.62;;;;;30.50;1.00;;;;;;2265142;61;1930;-90
2023/08/20 05:53:18;130123.00;0.43;225.54;0.00;0.00;0.62;;;;;31.50;1.00;;;;;;2265126;61;1265;-89
2023/08/20 05:55:45;99053.00;0.33;171.94;0.00;0.00;0.62;;;;;32.30;1.00;;;;;;2265206;61;982;-88
2023/08/20 05:58:12;151331.00;0.50;262.10;0.00;0.00;0.62;;;;;32.80;1.00;;;;;;2265231;61;1081;-87
2023/08/20 06:00:39;80776.00;0.27;140.38;0.00;0.00;0.62;;;;;32.50;1.00;;;;;;2265018;61;1014;-88
2023/08/20 06:03:07;0.00;0.00;0.62;0.00;0.00;0.62;;;;;32.50;1.00;;;;;;2265146;61;1095;-88
2023/08/20 06:05:35;138248.00;0.46;239.55;0.00;0.00;0.62;;;;;32.00;1.00;;;;;;2265060;61;1334;-90
2023/08/20 06:08:01;97641.00;0.33;169.50;0.00;0.00;0.62;;;;;31.80;1.00;;;;;;2265177;61;1085;-89
2023/08/20 06:10:28;60452.00;0.20;105.26;0.00;0.00;0.62;;;;;32.40;1.00;;;;;;2265112;61;1915;-88
2023/08/20 06:12:56;44020.00;0.15;76.84;0.00;0.00;0.62;;;;;32.50;1.00;;;;;;2265131;61;1049;-87
2023/08/20 06:15:23;12121.00;0.04;21.62;0.00;0.00;0.62;;;;;33.50;1.00;;;;;;2265079;61;1326;-87
2023/08/20 06:17:50;177395.00;0.59;307.00;0.00;0.00;0.62;;;;;34.30;1.00;;;;;;2265056;61;2297;-88
2023/08/20 06:20:18;53762.00;0.18;93.69;0.00;0.00;0.62;;;;;34.90;1.00;;;;;;2265070;61;1200;-89
2023/08/20 06:22:45;68968.00;0.23;119.98;0.00;0.00;0.62;;;;;34.50;1.00;;;;;;2265029;61;1007;-88
2023/08/20 06:25:12;155861.00;0.52;269.91;0.00;0.00;0.62;;;;;34.50;1.00;;;;;;2265038;61;1365;-89
2023/08/20 06:27:39;117149664.00;390.50;65125220.00;0.00;0.00;0.62;;;;;34.10;1.00;;;;;;2265031;61;1732;-88
2023/08/20 06:30:08;75280.00;0.25;130.88;0.00;0.00;0.62;;;;;34.40;1.00;;;;;;2264988;61;2010;-89
2023/08/20 06:32:35;0.00;0.00;0.62;0.00;0.00;0.62;;;;;34.70;1.00;;;;;;2265063;61;1080;-88
2023/08/20 06:35:02;120811.00;0.40;209.48;0.00;0.00;0.62;;;;;35.70;1.00;;;;;;2264961;61;1765;-88
2023/08/20 06:37:31;157494.00;0.52;272.72;0.00;0.00;0.62;;;;;35.70;1.00;;;;;;2265010;61;1694;-87
2023/08/20 06:39:58;148895.00;0.50;257.90;0.00;0.00;0.62;;;;;35.30;1.00;;;;;;2264997;61;1483;-86
2023/08/20 06:42:26;106823.00;0.36;185.35;0.00;0.00;0.62;;;;;35.40;1.00;;;;;;2265017;61;2226;-87
2023/08/20 06:44:52;133866.00;0.45;232.00;0.00;0.00;0.62;;;;;35.30;1.00;;;;;;2261561;61;1429;-88
2023/08/20 06:47:19;80109.00;0.27;139.23;0.00;0.00;0.62;;;;;35.30;1.00;;;;;;2264953;61;1053;-90
2023/08/20 06:49:46;371652.00;1.24;641.08;5039.00;0.02;9.35;;;;;35.20;1.00;;;;;;2264892;61;1990;-88
2023/08/20 06:52:13;370356.00;1.23;638.85;0.00;0.00;0.62;;;;;34.90;1.00;;;;;;2265039;61;1112;-87
2023/08/20 06:54:42;114839.00;0.38;199.18;0.00;0.00;0.62;;;;;34.90;1.00;;;;;;2264949;61;1414;-88
2023/08/20 06:57:08;94772.00;0.32;164.55;0.00;0.00;0.62;;;;;35.20;1.00;;;;;;2264929;61;1114;-89
2023/08/20 06:59:35;343497.00;1.14;592.68;18534.00;0.06;32.73;;;;;35.30;1.00;;;;;;2264927;61;1579;-89
2023/08/20 07:02:03;340689.00;1.14;587.86;63611.00;0.21;110.72;;;;;35.40;1.00;;;;;;2264991;61;1002;-87
2023/08/20 07:04:30;410559.00;1.37;707.96;39062.00;0.13;68.27;;;;;34.60;1.00;;;;;;2264894;61;1462;-87
2023/08/20 07:06:58;111571.00;0.37;193.54;0.00;0.00;0.62;;;;;33.90;1.00;;;;;;2265030;61;1752;-88
2023/08/20 07:09:25;251514.00;0.84;434.55;84557.00;0.28;146.91;;;;;33.20;1.00;;;;;;2264929;61;1992;-87
2023/08/20 07:11:53;132309.00;0.44;229.31;0.00;0.00;0.62;;;;;33.10;1.00;;;;;;2264970;61;1763;-87
2023/08/20 07:14:20;138615.00;0.46;240.18;0.00;0.00;0.62;;;;;33.90;1.00;;;;;;2264877;61;1324;-87
2023/08/20 07:16:47;313621.00;1.05;541.33;0.00;0.00;0.62;;;;;34.80;1.00;;;;;;2264954;61;1639;-88
2023/08/20 07:19:14;175170.00;0.58;303.17;0.00;0.00;0.62;;;;;34.80;1.00;;;;;;2264951;61;1747;-87
2023/08/20 07:21:41;429644.00;1.43;740.77;0.00;0.00;0.62;;;;;35.40;1.00;;;;;;2264884;61;1146;-88
2023/08/20 07:24:09;290814.00;0.97;502.13;66522.00;0.22;115.75;;;;;35.20;1.00;;;;;;2264769;61;1310;-88
2023/08/20 07:26:36;109045.00;0.36;189.18;0.00;0.00;0.62;;;;;35.20;1.00;;;;;;2264880;61;1027;-88
2023/08/20 07:29:05;169460.00;0.56;293.34;0.00;0.00;0.62;;;;;35.60;1.00;;;;;;2264866;61;1052;-87
2023/08/20 07:31:33;135595.00;0.45;234.98;0.00;0.00;0.62;;;;;35.90;1.00;;;;;;2264856;61;2009;-87
2023/08/20 07:34:02;236458.00;0.79;408.66;0.00;0.00;0.62;;;;;36.00;1.00;;;;;;2264697;61;1411;-88
2023/08/20 07:36:30;378357.00;1.26;652.60;56148.00;0.19;97.82;;;;;35.30;1.00;;;;;;2264836;61;956;-88
2023/08/20 07:38:57;156740.00;0.52;271.42;0.00;0.00;0.62;;;;;35.80;1.00;;;;;;2264909;61;1154;-88
2023/08/20 07:41:24;99883.00;0.33;173.37;0.00;0.00;0.62;;;;;36.50;1.00;;;;;;2264816;61;1763;-90
2023/08/20 07:43:52;133925.00;0.45;232.10;0.00;0.00;0.62;;;;;37.10;1.00;;;;;;2264754;61;1297;-88
2023/08/20 07:46:21;176277.00;0.59;305.08;45378.00;0.15;79.19;;;;;37.00;1.00;;;;;;2264841;61;1589;-88
2023/08/20 07:48:49;325754.00;1.09;562.19;0.00;0.00;0.62;;;;;36.30;1.00;;;;;;2291194;56;3738;-90
2023/08/20 07:51:16;209149.00;0.70;361.67;4285.00;0.01;8.05;;;;;35.40;1.00;;;;;;2272817;61;2012;-89
2023/08/20 07:53:43;498270.00;1.66;858.85;6350.00;0.02;11.62;;;;;35.80;1.00;;;;;;2272801;61;1301;-89
2023/08/20 07:56:10;593054.00;1.98;1022.23;66297.00;0.22;115.36;;;;;35.90;1.00;;;;;;2272781;61;2203;-89
2023/08/20 07:58:40;824877.00;2.75;1424.54;73131.00;0.24;127.17;;;;;35.90;1.00;;;;;;2272779;61;1035;-89
2023/08/20 08:01:07;632122.00;2.11;1089.72;21504.00;0.07;37.87;;;;;36.70;1.00;;;;;;2285784;55;3746;-89
2023/08/20 08:03:36;507301.00;1.69;874.39;109633.00;0.37;190.20;;;;;36.60;1.00;;;;;;2273881;61;2083;-89
2023/08/20 08:06:03;761130.00;2.54;1313.42;65584.00;0.22;114.13;;;;;36.90;1.00;;;;;;2276082;61;1134;-89
2023/08/20 08:08:30;525938.00;1.75;906.49;39582.00;0.13;69.17;;;;;36.50;1.00;;;;;;2273489;61;997;-89
2023/08/20 08:11:01;988180.00;3.29;1711.55;65225.00;0.22;113.51;;;;;36.90;1.00;;;;;;2273471;61;1919;-88
2023/08/20 08:13:28;1106695.00;3.69;1922.40;107625.00;0.36;186.73;;;;;37.00;1.00;;;;;;2277411;41;3590;-90
2023/08/20 08:15:58;1078697.00;3.60;1872.37;183457.00;0.61;317.44;;;;;37.00;1.00;;;;;;2273508;61;939;-92
2023/08/20 08:18:26;841456.00;2.80;1453.52;38960.00;0.13;68.09;;;;;37.20;1.00;;;;;;2273723;55;3783;-90
2023/08/20 08:20:57;118333544.00;394.45;67121472.00;24570.00;0.08;43.18;;;;;37.90;1.00;;;;;;2269344;61;981;-88
2023/08/20 08:23:29;1045092.00;3.48;1812.50;65675.00;0.22;114.29;;;;;38.10;1.00;;;;;;2269393;61;1317;-89
2023/08/20 08:25:57;212006.00;0.71;366.59;16647.00;0.06;29.46;;;;;38.00;1.00;;;;;;2269395;61;1341;-89
2023/08/20 08:28:24;383142.00;1.28;660.83;34454.00;0.11;60.29;;;;;37.90;1.00;;;;;;2269405;61;1776;-89
2023/08/20 08:30:51;1334195.00;4.45;2334.82;396927.00;1.32;684.52;;;;;37.50;1.00;;;;;;2269352;61;2009;-90
2023/08/20 08:33:18;774815.00;2.58;1337.24;115498.00;0.38;200.32;;;;;37.80;1.00;;;;;;2269261;61;1680;-88
2023/08/20 08:35:45;1055168.00;3.52;1830.43;92115.00;0.31;159.96;;;;;37.50;1.00;;;;;;2269383;61;1144;-91
2023/08/20 08:38:14;705666.00;2.35;1217.07;88288.00;0.29;153.35;;;;;37.40;1.00;;;;;;2269385;61;1788;-88
2023/08/20 08:40:43;710794.00;2.37;1225.96;11947.00;0.04;21.32;;;;;37.50;1.00;;;;;;2272699;40;3594;-92
2023/08/20 08:43:16;733262.00;2.44;1264.97;38793.00;0.13;67.80;;;;;37.70;1.00;;;;;;2273457;61;1015;-88
2023/08/20 08:45:47;758530.00;2.53;1308.89;19500.00;0.06;34.40;;;;;38.30;1.00;;;;;;2269271;61;2561;-89
2023/08/20 08:48:15;394791.00;1.32;680.85;30247.00;0.10;53.01;;;;;37.20;1.00;;;;;;2269039;61;1004;-89
2023/08/20 08:53:14;1601835.00;5.34;2836.25;87262.00;0.29;151.58;;;;;37.60;1.00;;;;;;2378414;40;3696;-90
2023/08/20 09:03:14;1456466.00;4.85;2561.47;69521.00;0.23;120.93;;;;;37.60;1.00;;;;;;2281304;56;3580;-88
2023/08/20 09:15:42;120421984.00;401.41;70741760.00;86012.00;0.29;149.42;;;;;36.30;1.00;;;;;;1805412;41;3580;-91
2023/08/20 09:18:11;315303.00;1.05;544.22;63902.00;0.21;111.22;;;;;36.10;1.00;;;;;;2404125;40;3542;-87
2023/08/20 09:20:39;329898.00;1.10;569.31;0.00;0.00;0.62;;;;;35.30;1.00;;;;;;2308386;41;3655;-90
2023/08/20 09:23:12;488158.00;1.63;841.44;0.00;0.00;0.62;;;;;35.20;1.00;;;;;;2288357;56;3751;-90
2023/08/20 09:28:09;828656.00;2.76;1431.15;0.00;0.00;0.62;;;;;34.70;1.00;;;;;;2266709;61;1329;-90
2023/08/20 09:33:11;941213.00;3.14;1628.62;0.00;0.00;0.62;;;;;35.20;1.00;;;;;;2289046;55;3669;-87
2023/08/20 09:35:38;343463.00;1.14;592.63;2442.00;0.01;4.85;;;;;34.90;1.00;;;;;;2377233;40;3701;-88
2023/08/20 09:40:34;1422416.00;4.74;2497.96;0.00;0.00;0.62;;;;;35.00;1.00;;;;;;2330956;40;3415;-90
2023/08/20 09:45:31;1456125.00;4.85;2560.83;104555.00;0.35;181.43;;;;;34.20;1.00;;;;;;2281780;56;3695;-87
2023/08/20 09:50:37;181202.00;0.60;313.56;0.00;0.00;0.62;;;;;34.20;1.00;;;;;;2275837;56;1871;-86
2023/08/20 09:53:13;532401.00;1.77;917.63;0.00;0.00;0.62;;;;;34.40;1.00;;;;;;2284062;56;3749;-88
2023/08/20 09:58:11;711515.00;2.37;1227.21;0.00;0.00;0.62;;;;;34.60;1.00;;;;;;1590872;41;3806;-88
2023/08/20 10:00:40;146441.00;0.49;253.67;0.00;0.00;0.62;;;;;34.30;1.00;;;;;;2407383;55;4008;-89
2023/08/20 10:03:08;524609.00;1.75;904.20;0.00;0.00;0.62;;;;;34.20;1.00;;;;;;2288888;40;3520;-90
2023/08/20 10:10:42;1083424.00;3.61;1880.81;17619.00;0.06;31.15;;;;;34.10;1.00;;;;;;2315322;41;3583;-88
2023/08/20 10:38:38;2332797.00;7.78;4331.57;136168.00;0.45;235.96;;;;;33.90;1.00;;;;;;2278860;56;3666;-88
2023/08/20 10:56:24;937577.00;3.13;1622.22;0.00;0.00;0.62;;;;;34.80;1.00;;;;;;2296872;40;3456;-90
2023/08/20 12:35:41;957108.00;3.19;1656.65;24962.00;0.08;43.86;;;;;35.20;1.00;;;;;;2040404;40;3443;-89
2023/08/20 12:43:07;1217437.00;4.06;2121.78;0.00;0.00;0.62;;;;;34.60;1.00;;;;;;2267760;61;979;-91